Aérodrome :
LOGIN :

S'inscrire | Disclaimer

   EN    FR    IT 

 










Légende :    VFR   VFR Marginal   IFR   IFR Intensif   IFR Très Intensif
Visi : 
Plafond : 
>= 8 km
>= 3000ft
5 à 8 km
1000 à 3000 ft
1500m à 5 km
500 à 1000 ft
800 à 1500m
200 à 500 ft
< 800m
< 200 ft
Symboles :   Orages  Brouillard  Fortes neiges  Fortes précipitations  Vent > 20 kt
SIGMETs :   Divers  Orages  Givrage  Turbulence  Onde Orograph.  Cendres Volcan.






- Altitude de l'aérodrome : 433 ft
- Code IATA : CCF


LFMK - Carcassonne

DERNIER METAR :
  • 232030Z AUTO 25007KT 220V290 9999 ///CB 15/14 Q1021

METARs EXPIRÉS :
  • 232000Z AUTO 27010KT 240V300 8000 RA FEW023/// SCT072/// OVC094/// ///TCU 15/14 Q1020
  • 231930Z AUTO 27011KT 9999 BKN022/// OVC052/// ///CB 17/13 Q1020
  • 231900Z AUTO 28012KT 240V310 9999 FEW022/// SCT027/// BKN049/// ///TCU 17/13 Q1020
  • 231830Z AUTO 27014KT 9999 FEW019 BKN027 BKN045 17/13 Q1019
  • 231800Z AUTO 28013KT 9999 FEW022 SCT047 OVC074 18/14 Q1019 TEMPO SHRA SCT040CB

TAF TAF LFMK
Valide du 23 à 15h jusqu'au 24 à 15h UTC


231400Z 2315/2415 27010KT 9999 SCT050
TEMPO 2315/2321 SHRA SCT040CB
PROB40
TEMPO 2315/2318 27017G27KT TSRA BKN014
BECMG 2321/2323 BKN010
BECMG 2409/2411 30015G25KT CAVOK



MET'MAP, la Météo Aéronautique d'un coup d'oeil ! - Copyright ORBIFLY Décembre 2007 - Disclaimer

ORBIFLY MET'MAP TEAM :

Programmation & Développement : Alexandra Zaïnal
Sur une idée originale de : Baudouin d'Aumeries
Assistance à la programmation : Marc-Olivier Méhu
Soutien technique & logistique : Manuel Goepfert

Contact : metmap@orbifly.com




SOURCES & CREDITS :

   NOAA